sensor_id;sensor_type;location;lat;lon;timestamp;temperature;humidity
20839;DHT22;10580;51.092;6.828;2023-01-19T00:00:21;1.70;99.90
20839;DHT22;10580;51.092;6.828;2023-01-19T00:02:46;1.70;99.90
20839;DHT22;10580;51.092;6.828;2023-01-19T00:05:13;1.70;99.90
20839;DHT22;10580;51.092;6.828;2023-01-19T00:07:39;1.80;99.90
20839;DHT22;10580;51.092;6.828;2023-01-19T00:10:05;1.80;99.90
20839;DHT22;10580;51.092;6.828;2023-01-19T00:12:31;1.80;99.90
20839;DHT22;10580;51.092;6.828;2023-01-19T00:14:57;1.80;99.90
20839;DHT22;10580;51.092;6.828;2023-01-19T00:17:23;1.80;99.90
20839;DHT22;10580;51.092;6.828;2023-01-19T00:19:49;1.90;99.90
20839;DHT22;10580;51.092;6.828;2023-01-19T00:22:14;1.90;99.90
20839;DHT22;10580;51.092;6.828;2023-01-19T00:24:40;1.90;99.90
20839;DHT22;10580;51.092;6.828;2023-01-19T00:27:05;1.90;99.90
20839;DHT22;10580;51.092;6.828;2023-01-19T00:29:31;1.90;99.90
20839;DHT22;10580;51.092;6.828;2023-01-19T00:31:58;1.90;99.90
20839;DHT22;10580;51.092;6.828;2023-01-19T00:34:24;1.90;99.90
20839;DHT22;10580;51.092;6.828;2023-01-19T00:36:50;1.90;99.90
20839;DHT22;10580;51.092;6.828;2023-01-19T00:39:15;1.90;99.90
20839;DHT22;10580;51.092;6.828;2023-01-19T00:41:41;1.90;99.90
20839;DHT22;10580;51.092;6.828;2023-01-19T00:44:25;1.90;99.90
20839;DHT22;10580;51.092;6.828;2023-01-19T00:46:51;1.90;99.90
20839;DHT22;10580;51.092;6.828;2023-01-19T00:49:16;1.80;99.90
20839;DHT22;10580;51.092;6.828;2023-01-19T00:51:42;1.80;99.90
20839;DHT22;10580;51.092;6.828;2023-01-19T00:54:08;1.80;99.90
20839;DHT22;10580;51.092;6.828;2023-01-19T00:56:35;1.80;99.90
20839;DHT22;10580;51.092;6.828;2023-01-19T00:59:01;1.80;99.90
20839;DHT22;10580;51.092;6.828;2023-01-19T01:01:26;1.70;99.90
20839;DHT22;10580;51.092;6.828;2023-01-19T01:03:52;1.70;99.90
20839;DHT22;10580;51.092;6.828;2023-01-19T01:06:21;1.70;99.90
20839;DHT22;10580;51.092;6.828;2023-01-19T01:08:47;1.70;99.90
20839;DHT22;10580;51.092;6.828;2023-01-19T01:11:13;1.70;99.90
20839;DHT22;10580;51.092;6.828;2023-01-19T01:13:38;1.70;99.90
20839;DHT22;10580;51.092;6.828;2023-01-19T01:16:04;1.70;99.90
20839;DHT22;10580;51.092;6.828;2023-01-19T01:18:32;1.70;99.90
20839;DHT22;10580;51.092;6.828;2023-01-19T01:21:04;1.70;99.90
20839;DHT22;10580;51.092;6.828;2023-01-19T01:23:30;1.80;99.90
20839;DHT22;10580;51.092;6.828;2023-01-19T01:25:55;1.70;99.90
20839;DHT22;10580;51.092;6.828;2023-01-19T01:28:21;1.70;99.90
20839;DHT22;10580;51.092;6.828;2023-01-19T01:30:47;1.70;99.90
20839;DHT22;10580;51.092;6.828;2023-01-19T01:33:12;1.70;99.90
20839;DHT22;10580;51.092;6.828;2023-01-19T01:35:38;1.70;99.90
20839;DHT22;10580;51.092;6.828;2023-01-19T01:38:04;1.70;99.90
20839;DHT22;10580;51.092;6.828;2023-01-19T01:40:29;1.80;99.90
20839;DHT22;10580;51.092;6.828;2023-01-19T01:42:55;1.80;99.90
20839;DHT22;10580;51.092;6.828;2023-01-19T01:45:29;1.80;99.90
20839;DHT22;10580;51.092;6.828;2023-01-19T01:48:15;1.80;99.90
20839;DHT22;10580;51.092;6.828;2023-01-19T01:51:04;1.80;99.90
20839;DHT22;10580;51.092;6.828;2023-01-19T01:56:33;1.80;99.90
20839;DHT22;10580;51.092;6.828;2023-01-19T01:59:00;1.80;99.90
20839;DHT22;10580;51.092;6.828;2023-01-19T02:01:27;1.70;99.90
20839;DHT22;10580;51.092;6.828;2023-01-19T02:04:11;1.70;99.90
20839;DHT22;10580;51.092;6.828;2023-01-19T02:06:36;1.70;99.90
20839;DHT22;10580;51.092;6.828;2023-01-19T02:09:22;1.60;99.90
20839;DHT22;10580;51.092;6.828;2023-01-19T02:12:07;1.70;99.90
20839;DHT22;10580;51.092;6.828;2023-01-19T02:14:51;1.60;99.90
20839;DHT22;10580;51.092;6.828;2023-01-19T02:17:17;1.60;99.90
20839;DHT22;10580;51.092;6.828;2023-01-19T02:19:43;1.60;99.90
20839;DHT22;10580;51.092;6.828;2023-01-19T02:22:30;1.60;99.90
20839;DHT22;10580;51.092;6.828;2023-01-19T02:25:01;1.70;99.90
20839;DHT22;10580;51.092;6.828;2023-01-19T02:27:27;1.60;99.90
20839;DHT22;10580;51.092;6.828;2023-01-19T02:29:53;1.60;99.90
20839;DHT22;10580;51.092;6.828;2023-01-19T02:32:19;1.70;99.90
20839;DHT22;10580;51.092;6.828;2023-01-19T02:34:44;1.70;99.90
20839;DHT22;10580;51.092;6.828;2023-01-19T02:37:11;1.60;99.90
20839;DHT22;10580;51.092;6.828;2023-01-19T02:39:44;1.70;99.90
20839;DHT22;10580;51.092;6.828;2023-01-19T02:42:15;1.70;99.90
20839;DHT22;10580;51.092;6.828;2023-01-19T02:44:44;1.60;99.90
20839;DHT22;10580;51.092;6.828;2023-01-19T02:47:11;1.60;99.90
20839;DHT22;10580;51.092;6.828;2023-01-19T02:49:37;1.60;99.90
20839;DHT22;10580;51.092;6.828;2023-01-19T02:52:03;1.50;99.90
20839;DHT22;10580;51.092;6.828;2023-01-19T02:54:40;1.50;99.90
20839;DHT22;10580;51.092;6.828;2023-01-19T03:00:06;1.60;99.90
20839;DHT22;10580;51.092;6.828;2023-01-19T03:03:07;1.60;99.90
20839;DHT22;10580;51.092;6.828;2023-01-19T03:11:09;1.60;99.90
20839;DHT22;10580;51.092;6.828;2023-01-19T03:13:43;1.60;99.90
20839;DHT22;10580;51.092;6.828;2023-01-19T03:16:17;1.60;99.90
20839;DHT22;10580;51.092;6.828;2023-01-19T03:18:48;1.60;99.90
20839;DHT22;10580;51.092;6.828;2023-01-19T03:21:17;1.60;99.90
20839;DHT22;10580;51.092;6.828;2023-01-19T03:23:44;1.60;99.90
20839;DHT22;10580;51.092;6.828;2023-01-19T03:26:15;1.60;99.90
20839;DHT22;10580;51.092;6.828;2023-01-19T03:28:43;1.50;99.90
20839;DHT22;10580;51.092;6.828;2023-01-19T03:31:15;1.50;99.90
20839;DHT22;10580;51.092;6.828;2023-01-19T03:33:45;1.50;99.90
20839;DHT22;10580;51.092;6.828;2023-01-19T03:36:18;1.50;99.90
20839;DHT22;10580;51.092;6.828;2023-01-19T03:38:45;1.50;99.90
20839;DHT22;10580;51.092;6.828;2023-01-19T03:41:15;1.50;99.90
20839;DHT22;10580;51.092;6.828;2023-01-19T03:43:42;1.50;99.90
20839;DHT22;10580;51.092;6.828;2023-01-19T03:46:09;1.50;99.90
20839;DHT22;10580;51.092;6.828;2023-01-19T03:48:35;1.50;99.90
20839;DHT22;10580;51.092;6.828;2023-01-19T03:51:07;1.50;99.90
20839;DHT22;10580;51.092;6.828;2023-01-19T03:53:34;1.50;99.90
20839;DHT22;10580;51.092;6.828;2023-01-19T03:55:59;1.60;99.90
20839;DHT22;10580;51.092;6.828;2023-01-19T03:58:25;1.60;99.90
20839;DHT22;10580;51.092;6.828;2023-01-19T04:00:50;1.60;99.90
20839;DHT22;10580;51.092;6.828;2023-01-19T04:03:17;1.70;99.90
20839;DHT22;10580;51.092;6.828;2023-01-19T04:05:44;1.70;99.90
20839;DHT22;10580;51.092;6.828;2023-01-19T04:08:09;1.80;99.90
20839;DHT22;10580;51.092;6.828;2023-01-19T04:10:36;1.80;99.90
20839;DHT22;10580;51.092;6.828;2023-01-19T04:13:03;1.90;99.90
20839;DHT22;10580;51.092;6.828;2023-01-19T04:15:29;1.90;99.90
20839;DHT22;10580;51.092;6.828;2023-01-19T04:17:59;1.90;99.90
20839;DHT22;10580;51.092;6.828;2023-01-19T04:20:26;2.00;99.90
20839;DHT22;10580;51.092;6.828;2023-01-19T04:22:53;2.00;99.90
20839;DHT22;10580;51.092;6.828;2023-01-19T04:25:19;2.10;99.90
20839;DHT22;10580;51.092;6.828;2023-01-19T04:27:45;2.10;99.90
20839;DHT22;10580;51.092;6.828;2023-01-19T04:30:11;2.10;99.90
20839;DHT22;10580;51.092;6.828;2023-01-19T04:32:37;2.10;99.90
20839;DHT22;10580;51.092;6.828;2023-01-19T04:35:03;2.10;99.90
20839;DHT22;10580;51.092;6.828;2023-01-19T04:37:28;2.00;99.90
20839;DHT22;10580;51.092;6.828;2023-01-19T04:39:54;2.00;99.90
20839;DHT22;10580;51.092;6.828;2023-01-19T04:42:19;2.00;99.90
20839;DHT22;10580;51.092;6.828;2023-01-19T04:44:45;2.00;99.90
20839;DHT22;10580;51.092;6.828;2023-01-19T04:47:11;2.00;99.90
20839;DHT22;10580;51.092;6.828;2023-01-19T04:49:37;2.00;99.90
20839;DHT22;10580;51.092;6.828;2023-01-19T04:52:05;2.00;99.90
20839;DHT22;10580;51.092;6.828;2023-01-19T04:54:31;2.00;99.90
20839;DHT22;10580;51.092;6.828;2023-01-19T04:56:57;2.00;99.90
20839;DHT22;10580;51.092;6.828;2023-01-19T04:59:23;1.90;99.90
20839;DHT22;10580;51.092;6.828;2023-01-19T05:01:48;2.00;99.90
20839;DHT22;10580;51.092;6.828;2023-01-19T05:04:14;2.00;99.90
20839;DHT22;10580;51.092;6.828;2023-01-19T05:06:40;2.00;99.90
20839;DHT22;10580;51.092;6.828;2023-01-19T05:09:06;2.10;99.90
20839;DHT22;10580;51.092;6.828;2023-01-19T05:11:37;2.10;99.90
20839;DHT22;10580;51.092;6.828;2023-01-19T05:14:03;2.10;99.90
20839;DHT22;10580;51.092;6.828;2023-01-19T05:16:28;2.00;99.90
20839;DHT22;10580;51.092;6.828;2023-01-19T05:18:54;1.90;99.90
20839;DHT22;10580;51.092;6.828;2023-01-19T05:21:19;1.80;99.90
20839;DHT22;10580;51.092;6.828;2023-01-19T05:23:45;1.60;99.90
20839;DHT22;10580;51.092;6.828;2023-01-19T05:26:10;1.50;99.90
20839;DHT22;10580;51.092;6.828;2023-01-19T05:28:36;1.40;99.90
20839;DHT22;10580;51.092;6.828;2023-01-19T05:31:02;1.40;99.90
20839;DHT22;10580;51.092;6.828;2023-01-19T05:36:13;1.30;99.90
20839;DHT22;10580;51.092;6.828;2023-01-19T05:38:38;1.30;99.90
20839;DHT22;10580;51.092;6.828;2023-01-19T05:41:04;1.20;99.90
20839;DHT22;10580;51.092;6.828;2023-01-19T05:43:30;1.20;99.90
20839;DHT22;10580;51.092;6.828;2023-01-19T05:45:55;1.20;99.90
20839;DHT22;10580;51.092;6.828;2023-01-19T05:48:21;1.10;99.90
20839;DHT22;10580;51.092;6.828;2023-01-19T05:50:46;1.10;99.90
20839;DHT22;10580;51.092;6.828;2023-01-19T05:53:14;1.00;99.90
20839;DHT22;10580;51.092;6.828;2023-01-19T05:55:40;1.00;99.90
20839;DHT22;10580;51.092;6.828;2023-01-19T05:58:05;1.00;99.90
20839;DHT22;10580;51.092;6.828;2023-01-19T06:00:31;1.00;99.90
20839;DHT22;10580;51.092;6.828;2023-01-19T06:02:57;0.90;99.90
20839;DHT22;10580;51.092;6.828;2023-01-19T06:05:24;0.90;99.90
20839;DHT22;10580;51.092;6.828;2023-01-19T06:07:50;0.90;99.90
20839;DHT22;10580;51.092;6.828;2023-01-19T06:10:15;0.90;99.90
20839;DHT22;10580;51.092;6.828;2023-01-19T06:12:41;0.90;99.90
20839;DHT22;10580;51.092;6.828;2023-01-19T06:15:10;0.90;99.90
20839;DHT22;10580;51.092;6.828;2023-01-19T06:20:53;1.00;99.90
20839;DHT22;10580;51.092;6.828;2023-01-19T06:23:30;1.00;99.90
20839;DHT22;10580;51.092;6.828;2023-01-19T06:25:56;1.00;99.90
20839;DHT22;10580;51.092;6.828;2023-01-19T06:28:22;1.00;99.90
20839;DHT22;10580;51.092;6.828;2023-01-19T06:30:49;1.00;99.90
20839;DHT22;10580;51.092;6.828;2023-01-19T06:33:15;1.00;99.90
20839;DHT22;10580;51.092;6.828;2023-01-19T06:35:48;1.00;99.90
20839;DHT22;10580;51.092;6.828;2023-01-19T06:38:14;1.00;99.90
20839;DHT22;10580;51.092;6.828;2023-01-19T06:40:41;1.00;99.90
20839;DHT22;10580;51.092;6.828;2023-01-19T06:43:07;1.10;99.90
20839;DHT22;10580;51.092;6.828;2023-01-19T06:45:33;1.00;99.90
20839;DHT22;10580;51.092;6.828;2023-01-19T06:47:59;1.00;99.90
20839;DHT22;10580;51.092;6.828;2023-01-19T06:50:25;1.00;99.90
20839;DHT22;10580;51.092;6.828;2023-01-19T06:52:51;1.10;99.90
20839;DHT22;10580;51.092;6.828;2023-01-19T06:55:16;1.10;99.90
20839;DHT22;10580;51.092;6.828;2023-01-19T06:57:42;1.10;99.90
20839;DHT22;10580;51.092;6.828;2023-01-19T07:00:10;1.20;99.90
20839;DHT22;10580;51.092;6.828;2023-01-19T07:02:39;1.20;99.90
20839;DHT22;10580;51.092;6.828;2023-01-19T07:05:07;1.20;99.90
20839;DHT22;10580;51.092;6.828;2023-01-19T07:07:34;1.20;99.90
20839;DHT22;10580;51.092;6.828;2023-01-19T07:09:59;1.20;99.90
20839;DHT22;10580;51.092;6.828;2023-01-19T07:12:25;1.20;99.90
20839;DHT22;10580;51.092;6.828;2023-01-19T07:14:51;1.30;99.90
20839;DHT22;10580;51.092;6.828;2023-01-19T07:17:17;1.30;99.90
20839;DHT22;10580;51.092;6.828;2023-01-19T07:19:44;1.30;99.90
20839;DHT22;10580;51.092;6.828;2023-01-19T07:22:09;1.30;99.90
20839;DHT22;10580;51.092;6.828;2023-01-19T07:24:35;1.30;99.90
20839;DHT22;10580;51.092;6.828;2023-01-19T07:27:02;1.30;99.90
20839;DHT22;10580;51.092;6.828;2023-01-19T07:29:28;1.30;99.90
20839;DHT22;10580;51.092;6.828;2023-01-19T07:31:53;1.30;99.90
20839;DHT22;10580;51.092;6.828;2023-01-19T07:34:19;1.40;99.90
20839;DHT22;10580;51.092;6.828;2023-01-19T07:36:45;1.40;99.90
20839;DHT22;10580;51.092;6.828;2023-01-19T07:39:12;1.40;99.90
20839;DHT22;10580;51.092;6.828;2023-01-19T07:41:37;1.40;99.90
20839;DHT22;10580;51.092;6.828;2023-01-19T07:44:03;1.40;99.90
20839;DHT22;10580;51.092;6.828;2023-01-19T07:46:29;1.50;99.90
20839;DHT22;10580;51.092;6.828;2023-01-19T07:48:54;1.50;99.90
20839;DHT22;10580;51.092;6.828;2023-01-19T07:51:20;1.50;99.90
20839;DHT22;10580;51.092;6.828;2023-01-19T07:53:45;1.50;99.90
20839;DHT22;10580;51.092;6.828;2023-01-19T07:56:13;1.50;99.90
20839;DHT22;10580;51.092;6.828;2023-01-19T07:58:39;1.50;99.90
20839;DHT22;10580;51.092;6.828;2023-01-19T08:01:07;1.50;99.90
20839;DHT22;10580;51.092;6.828;2023-01-19T08:03:32;1.60;99.90
20839;DHT22;10580;51.092;6.828;2023-01-19T08:05:58;1.50;99.90
20839;DHT22;10580;51.092;6.828;2023-01-19T08:08:24;1.60;99.90
20839;DHT22;10580;51.092;6.828;2023-01-19T08:10:50;1.60;99.90
20839;DHT22;10580;51.092;6.828;2023-01-19T08:13:16;1.60;99.90
20839;DHT22;10580;51.092;6.828;2023-01-19T08:15:43;1.60;99.90
20839;DHT22;10580;51.092;6.828;2023-01-19T08:18:41;1.60;99.90
20839;DHT22;10580;51.092;6.828;2023-01-19T08:28:23;1.60;99.90
20839;DHT22;10580;51.092;6.828;2023-01-19T08:30:52;1.60;99.90
20839;DHT22;10580;51.092;6.828;2023-01-19T08:36:54;1.60;99.90
20839;DHT22;10580;51.092;6.828;2023-01-19T08:40:00;1.60;99.90
20839;DHT22;10580;51.092;6.828;2023-01-19T08:42:41;1.60;99.90
20839;DHT22;10580;51.092;6.828;2023-01-19T08:49:20;1.70;99.90
20839;DHT22;10580;51.092;6.828;2023-01-19T08:55:29;1.70;99.90
20839;DHT22;10580;51.092;6.828;2023-01-19T08:57:56;1.70;99.90
20839;DHT22;10580;51.092;6.828;2023-01-19T09:06:13;1.80;99.90
20839;DHT22;10580;51.092;6.828;2023-01-19T09:18:15;1.90;99.90
20839;DHT22;10580;51.092;6.828;2023-01-19T09:21:33;1.90;99.90
20839;DHT22;10580;51.092;6.828;2023-01-19T09:23:58;2.00;99.90
20839;DHT22;10580;51.092;6.828;2023-01-19T09:26:25;2.10;99.90
20839;DHT22;10580;51.092;6.828;2023-01-19T09:29:09;2.10;99.90
20839;DHT22;10580;51.092;6.828;2023-01-19T09:31:53;2.20;99.90
20839;DHT22;10580;51.092;6.828;2023-01-19T09:34:24;2.20;99.90
20839;DHT22;10580;51.092;6.828;2023-01-19T09:37:04;2.30;99.90
20839;DHT22;10580;51.092;6.828;2023-01-19T09:46:51;2.50;99.90
20839;DHT22;10580;51.092;6.828;2023-01-19T09:49:32;2.50;99.90
20839;DHT22;10580;51.092;6.828;2023-01-19T09:52:01;2.40;99.90
20839;DHT22;10580;51.092;6.828;2023-01-19T09:54:35;2.40;99.90
20839;DHT22;10580;51.092;6.828;2023-01-19T09:57:10;2.40;99.90
20839;DHT22;10580;51.092;6.828;2023-01-19T09:59:36;2.40;99.90
20839;DHT22;10580;51.092;6.828;2023-01-19T10:04:38;2.50;99.90
20839;DHT22;10580;51.092;6.828;2023-01-19T10:07:45;2.50;99.90
20839;DHT22;10580;51.092;6.828;2023-01-19T10:10:21;2.40;99.90
20839;DHT22;10580;51.092;6.828;2023-01-19T10:18:38;2.40;99.90
20839;DHT22;10580;51.092;6.828;2023-01-19T10:21:25;2.40;99.90
20839;DHT22;10580;51.092;6.828;2023-01-19T10:24:00;2.40;99.90
20839;DHT22;10580;51.092;6.828;2023-01-19T10:26:38;2.40;99.90
20839;DHT22;10580;51.092;6.828;2023-01-19T10:29:30;2.40;99.90
20839;DHT22;10580;51.092;6.828;2023-01-19T10:32:14;2.40;99.90
20839;DHT22;10580;51.092;6.828;2023-01-19T10:34:44;2.40;99.90
20839;DHT22;10580;51.092;6.828;2023-01-19T10:37:36;2.40;99.90
20839;DHT22;10580;51.092;6.828;2023-01-19T10:46:14;2.60;99.90
20839;DHT22;10580;51.092;6.828;2023-01-19T10:48:42;2.60;99.90
20839;DHT22;10580;51.092;6.828;2023-01-19T10:51:09;2.70;99.90
20839;DHT22;10580;51.092;6.828;2023-01-19T10:53:35;2.80;99.90
20839;DHT22;10580;51.092;6.828;2023-01-19T10:56:51;2.80;99.90
20839;DHT22;10580;51.092;6.828;2023-01-19T10:58:59;2.90;99.90
20839;DHT22;10580;51.092;6.828;2023-01-19T11:01:26;3.00;99.90
20839;DHT22;10580;51.092;6.828;2023-01-19T11:03:53;3.00;99.90
20839;DHT22;10580;51.092;6.828;2023-01-19T11:06:20;3.10;99.90
20839;DHT22;10580;51.092;6.828;2023-01-19T11:08:47;3.10;99.90
20839;DHT22;10580;51.092;6.828;2023-01-19T11:11:16;3.10;99.90
20839;DHT22;10580;51.092;6.828;2023-01-19T11:13:43;3.10;99.90
20839;DHT22;10580;51.092;6.828;2023-01-19T11:16:28;3.20;99.90
20839;DHT22;10580;51.092;6.828;2023-01-19T11:18:56;3.20;99.90
20839;DHT22;10580;51.092;6.828;2023-01-19T11:21:27;3.30;99.90
20839;DHT22;10580;51.092;6.828;2023-01-19T11:24:00;3.30;99.90
20839;DHT22;10580;51.092;6.828;2023-01-19T11:26:43;3.30;99.90
20839;DHT22;10580;51.092;6.828;2023-01-19T11:29:24;3.40;99.90
20839;DHT22;10580;51.092;6.828;2023-01-19T11:31:52;3.50;99.90
20839;DHT22;10580;51.092;6.828;2023-01-19T11:41:17;3.50;99.90
20839;DHT22;10580;51.092;6.828;2023-01-19T11:43:43;3.50;99.90
20839;DHT22;10580;51.092;6.828;2023-01-19T11:46:11;3.50;99.90
20839;DHT22;10580;51.092;6.828;2023-01-19T11:49:01;3.50;99.90
20839;DHT22;10580;51.092;6.828;2023-01-19T11:51:34;3.50;99.90
20839;DHT22;10580;51.092;6.828;2023-01-19T11:54:11;3.50;99.90
20839;DHT22;10580;51.092;6.828;2023-01-19T11:56:40;3.40;99.90
20839;DHT22;10580;51.092;6.828;2023-01-19T12:02:49;3.40;99.90
20839;DHT22;10580;51.092;6.828;2023-01-19T12:05:29;3.40;99.90
20839;DHT22;10580;51.092;6.828;2023-01-19T12:07:58;3.40;99.90
20839;DHT22;10580;51.092;6.828;2023-01-19T12:10:29;3.40;99.90
20839;DHT22;10580;51.092;6.828;2023-01-19T12:13:02;3.30;99.90
20839;DHT22;10580;51.092;6.828;2023-01-19T12:15:35;3.40;99.90
20839;DHT22;10580;51.092;6.828;2023-01-19T12:18:05;3.40;99.90
20839;DHT22;10580;51.092;6.828;2023-01-19T12:20:42;3.50;99.90
20839;DHT22;10580;51.092;6.828;2023-01-19T12:28:40;3.60;99.90
20839;DHT22;10580;51.092;6.828;2023-01-19T12:31:09;3.80;99.90
20839;DHT22;10580;51.092;6.828;2023-01-19T12:37:36;3.90;99.90
20839;DHT22;10580;51.092;6.828;2023-01-19T12:40:30;3.90;99.90
20839;DHT22;10580;51.092;6.828;2023-01-19T12:43:12;3.70;99.90
20839;DHT22;10580;51.092;6.828;2023-01-19T12:45:48;3.70;99.90
20839;DHT22;10580;51.092;6.828;2023-01-19T12:48:24;3.70;99.90
20839;DHT22;10580;51.092;6.828;2023-01-19T12:50:50;3.60;99.90
20839;DHT22;10580;51.092;6.828;2023-01-19T12:53:18;3.60;99.90
20839;DHT22;10580;51.092;6.828;2023-01-19T12:55:44;3.60;99.90
20839;DHT22;10580;51.092;6.828;2023-01-19T12:58:23;3.60;99.90
20839;DHT22;10580;51.092;6.828;2023-01-19T13:01:10;3.60;99.90
20839;DHT22;10580;51.092;6.828;2023-01-19T13:03:45;3.60;99.90
20839;DHT22;10580;51.092;6.828;2023-01-19T13:06:13;3.70;99.90
20839;DHT22;10580;51.092;6.828;2023-01-19T13:08:57;3.80;99.90
20839;DHT22;10580;51.092;6.828;2023-01-19T13:11:22;3.80;99.90
20839;DHT22;10580;51.092;6.828;2023-01-19T13:18:52;3.80;99.90
20839;DHT22;10580;51.092;6.828;2023-01-19T13:21:34;3.70;99.90
20839;DHT22;10580;51.092;6.828;2023-01-19T13:26:55;3.70;99.90
20839;DHT22;10580;51.092;6.828;2023-01-19T13:29:40;3.70;99.90
20839;DHT22;10580;51.092;6.828;2023-01-19T13:32:16;3.60;99.90
20839;DHT22;10580;51.092;6.828;2023-01-19T13:34:49;3.60;99.90
20839;DHT22;10580;51.092;6.828;2023-01-19T13:37:19;3.60;99.90
20839;DHT22;10580;51.092;6.828;2023-01-19T13:39:47;3.50;99.90
20839;DHT22;10580;51.092;6.828;2023-01-19T13:42:20;3.60;99.90
20839;DHT22;10580;51.092;6.828;2023-01-19T13:44:52;3.60;99.90
20839;DHT22;10580;51.092;6.828;2023-01-19T13:47:41;3.60;99.90
20839;DHT22;10580;51.092;6.828;2023-01-19T13:50:20;3.60;99.90
20839;DHT22;10580;51.092;6.828;2023-01-19T13:52:46;3.50;99.90
20839;DHT22;10580;51.092;6.828;2023-01-19T13:55:14;3.50;99.90
20839;DHT22;10580;51.092;6.828;2023-01-19T13:57:48;3.50;99.90
20839;DHT22;10580;51.092;6.828;2023-01-19T14:00:23;3.50;99.90
20839;DHT22;10580;51.092;6.828;2023-01-19T14:05:43;3.60;99.90
20839;DHT22;10580;51.092;6.828;2023-01-19T14:13:19;3.50;99.90
20839;DHT22;10580;51.092;6.828;2023-01-19T14:15:47;3.50;99.90
20839;DHT22;10580;51.092;6.828;2023-01-19T14:21:03;3.40;99.90
20839;DHT22;10580;51.092;6.828;2023-01-19T14:23:47;3.40;99.90
20839;DHT22;10580;51.092;6.828;2023-01-19T14:26:38;3.30;99.90
20839;DHT22;10580;51.092;6.828;2023-01-19T14:29:20;3.30;99.90
20839;DHT22;10580;51.092;6.828;2023-01-19T14:34:35;3.30;99.90
20839;DHT22;10580;51.092;6.828;2023-01-19T14:37:10;3.20;99.90
20839;DHT22;10580;51.092;6.828;2023-01-19T14:39:48;3.20;99.90
20839;DHT22;10580;51.092;6.828;2023-01-19T14:42:20;3.20;99.90
20839;DHT22;10580;51.092;6.828;2023-01-19T14:44:49;3.20;99.90
20839;DHT22;10580;51.092;6.828;2023-01-19T14:47:25;3.20;99.90
20839;DHT22;10580;51.092;6.828;2023-01-19T14:49:55;3.10;99.90
20839;DHT22;10580;51.092;6.828;2023-01-19T14:52:27;3.00;99.90
20839;DHT22;10580;51.092;6.828;2023-01-19T14:54:55;2.90;99.90
20839;DHT22;10580;51.092;6.828;2023-01-19T14:57:21;2.80;99.90
20839;DHT22;10580;51.092;6.828;2023-01-19T14:59:46;2.80;99.90
20839;DHT22;10580;51.092;6.828;2023-01-19T15:02:13;2.70;99.90
20839;DHT22;10580;51.092;6.828;2023-01-19T15:04:38;2.70;99.90
20839;DHT22;10580;51.092;6.828;2023-01-19T15:07:04;2.60;99.90
20839;DHT22;10580;51.092;6.828;2023-01-19T15:09:30;2.60;99.90
20839;DHT22;10580;51.092;6.828;2023-01-19T15:11:56;2.60;99.90
20839;DHT22;10580;51.092;6.828;2023-01-19T15:14:22;2.60;99.90
20839;DHT22;10580;51.092;6.828;2023-01-19T15:16:48;2.70;99.90
20839;DHT22;10580;51.092;6.828;2023-01-19T15:19:15;2.70;99.90
20839;DHT22;10580;51.092;6.828;2023-01-19T15:22:15;2.70;99.90
20839;DHT22;10580;51.092;6.828;2023-01-19T15:24:53;2.60;99.90
20839;DHT22;10580;51.092;6.828;2023-01-19T15:27:25;2.70;99.90
20839;DHT22;10580;51.092;6.828;2023-01-19T15:29:51;2.70;99.90
20839;DHT22;10580;51.092;6.828;2023-01-19T15:32:19;2.70;99.90
20839;DHT22;10580;51.092;6.828;2023-01-19T15:34:46;2.70;99.90
20839;DHT22;10580;51.092;6.828;2023-01-19T15:37:14;2.70;99.90
20839;DHT22;10580;51.092;6.828;2023-01-19T15:39:40;2.70;99.90
20839;DHT22;10580;51.092;6.828;2023-01-19T15:42:11;2.80;99.90
20839;DHT22;10580;51.092;6.828;2023-01-19T15:44:38;2.80;99.90
20839;DHT22;10580;51.092;6.828;2023-01-19T15:47:04;2.80;99.90
20839;DHT22;10580;51.092;6.828;2023-01-19T15:49:29;2.80;99.90
20839;DHT22;10580;51.092;6.828;2023-01-19T15:51:55;2.90;99.90
20839;DHT22;10580;51.092;6.828;2023-01-19T15:54:24;2.90;99.90
20839;DHT22;10580;51.092;6.828;2023-01-19T15:56:49;2.90;99.90
20839;DHT22;10580;51.092;6.828;2023-01-19T15:59:16;2.90;99.90
20839;DHT22;10580;51.092;6.828;2023-01-19T16:01:42;2.90;99.90
20839;DHT22;10580;51.092;6.828;2023-01-19T16:04:08;2.90;99.90
20839;DHT22;10580;51.092;6.828;2023-01-19T16:06:36;2.90;99.90
20839;DHT22;10580;51.092;6.828;2023-01-19T16:09:02;2.90;99.90
20839;DHT22;10580;51.092;6.828;2023-01-19T16:11:30;2.70;99.90
20839;DHT22;10580;51.092;6.828;2023-01-19T16:13:59;2.70;99.90
20839;DHT22;10580;51.092;6.828;2023-01-19T16:16:28;2.70;99.90
20839;DHT22;10580;51.092;6.828;2023-01-19T16:18:57;2.70;99.90
20839;DHT22;10580;51.092;6.828;2023-01-19T16:21:23;2.60;99.90
20839;DHT22;10580;51.092;6.828;2023-01-19T16:23:48;2.50;99.90
20839;DHT22;10580;51.092;6.828;2023-01-19T16:26:32;2.50;99.90
20839;DHT22;10580;51.092;6.828;2023-01-19T16:29:00;2.40;99.90
20839;DHT22;10580;51.092;6.828;2023-01-19T16:31:27;2.40;99.90
20839;DHT22;10580;51.092;6.828;2023-01-19T16:33:53;2.40;99.90
20839;DHT22;10580;51.092;6.828;2023-01-19T16:36:30;2.40;99.90
20839;DHT22;10580;51.092;6.828;2023-01-19T16:39:01;2.40;99.90
20839;DHT22;10580;51.092;6.828;2023-01-19T16:41:28;2.40;99.90
20839;DHT22;10580;51.092;6.828;2023-01-19T16:43:54;2.40;99.90
20839;DHT22;10580;51.092;6.828;2023-01-19T16:46:23;2.40;99.90
20839;DHT22;10580;51.092;6.828;2023-01-19T16:48:49;2.40;99.90
20839;DHT22;10580;51.092;6.828;2023-01-19T16:51:15;2.40;99.90
20839;DHT22;10580;51.092;6.828;2023-01-19T16:53:41;2.40;99.90
20839;DHT22;10580;51.092;6.828;2023-01-19T16:56:10;2.40;99.90
20839;DHT22;10580;51.092;6.828;2023-01-19T16:58:35;2.40;99.90
20839;DHT22;10580;51.092;6.828;2023-01-19T17:01:13;2.40;99.90
20839;DHT22;10580;51.092;6.828;2023-01-19T17:03:40;2.40;99.90
20839;DHT22;10580;51.092;6.828;2023-01-19T17:06:06;2.40;99.90
20839;DHT22;10580;51.092;6.828;2023-01-19T17:08:33;2.40;99.90
20839;DHT22;10580;51.092;6.828;2023-01-19T17:10:59;2.40;99.90
20839;DHT22;10580;51.092;6.828;2023-01-19T17:13:28;2.40;99.90
20839;DHT22;10580;51.092;6.828;2023-01-19T17:15:59;2.40;99.90
20839;DHT22;10580;51.092;6.828;2023-01-19T17:18:25;2.50;99.90
20839;DHT22;10580;51.092;6.828;2023-01-19T17:20:51;2.50;99.90
20839;DHT22;10580;51.092;6.828;2023-01-19T17:23:16;2.50;99.90
20839;DHT22;10580;51.092;6.828;2023-01-19T17:25:42;2.50;99.90
20839;DHT22;10580;51.092;6.828;2023-01-19T17:28:07;2.60;99.90
20839;DHT22;10580;51.092;6.828;2023-01-19T17:30:33;2.50;99.90
20839;DHT22;10580;51.092;6.828;2023-01-19T17:32:59;2.50;99.90
20839;DHT22;10580;51.092;6.828;2023-01-19T17:35:27;2.50;99.90
20839;DHT22;10580;51.092;6.828;2023-01-19T17:37:53;2.60;99.90
20839;DHT22;10580;51.092;6.828;2023-01-19T17:40:20;2.60;99.90
20839;DHT22;10580;51.092;6.828;2023-01-19T17:42:50;2.60;99.90
20839;DHT22;10580;51.092;6.828;2023-01-19T17:45:16;2.60;99.90
20839;DHT22;10580;51.092;6.828;2023-01-19T17:47:42;2.60;99.90
20839;DHT22;10580;51.092;6.828;2023-01-19T17:50:07;2.60;99.90
20839;DHT22;10580;51.092;6.828;2023-01-19T17:52:33;2.60;99.90
20839;DHT22;10580;51.092;6.828;2023-01-19T17:54:59;2.60;99.90